Time;durP1;ratioP1;P1;durP2;ratioP2;P2;SDS_P1;SDS_P2;PMS_P1;PMS_P2;Temp;Humidity;BMP_temperature;BMP_pressure;BME280_temperature;BME280_humidity;BME280_pressure;Samples;Min_cycle;Max_cycle;Signal;HPM_P1;HPM_P2
2023/07/23 00:01:28;;;;;;;0.00;0.00;;;19.50;99.90;;;;;;7384682;19;20151;-72
2023/07/23 00:03:57;;;;;;;0.00;0.00;;;19.40;99.90;;;;;;7379950;19;20667;-73
2023/07/23 00:06:26;;;;;;;0.00;0.00;;;19.40;99.90;;;;;;7383251;19;20153;-73
2023/07/23 00:08:55;;;;;;;0.00;0.00;;;19.40;99.90;;;;;;7384092;19;20143;-73
2023/07/23 00:11:27;;;;;;;0.00;0.00;;;19.30;99.90;;;;;;7385182;19;20223;-73
2023/07/23 00:13:56;;;;;;;0.00;0.00;;;19.30;99.90;;;;;;7379551;19;20188;-74
2023/07/23 00:16:25;;;;;;;0.00;0.00;;;19.30;99.90;;;;;;7383927;19;20644;-73
2023/07/23 00:18:54;;;;;;;0.00;0.00;;;19.20;99.90;;;;;;7382851;19;20137;-74
2023/07/23 00:21:26;;;;;;;0.00;0.00;;;19.20;99.90;;;;;;7384734;19;20147;-73
2023/07/23 00:23:55;;;;;;;0.00;0.00;;;19.10;99.90;;;;;;7379317;19;20184;-73
2023/07/23 00:26:28;;;;;;;0.00;0.00;;;19.00;99.90;;;;;;7383976;19;20140;-73
2023/07/23 00:28:57;;;;;;;0.00;0.00;;;18.90;99.90;;;;;;7381741;19;20160;-73
2023/07/23 00:31:26;;;;;;;0.00;0.00;;;18.80;99.90;;;;;;7382333;19;20156;-73
2023/07/23 00:33:55;;;;;;;0.00;0.00;;;18.60;99.90;;;;;;7378610;19;20188;-73
2023/07/23 00:36:24;;;;;;;0.00;0.00;;;18.50;99.90;;;;;;7376715;19;20191;-73
2023/07/23 00:38:50;;;;;;;0.00;0.00;;;18.40;99.90;;;;;;7381024;19;20145;-72
2023/07/23 00:41:20;;;;;;;0.00;0.00;;;18.30;99.90;;;;;;7384487;19;20129;-74
2023/07/23 00:43:51;;;;;;;0.00;0.00;;;18.20;99.90;;;;;;7380715;19;20177;-73
2023/07/23 00:46:20;;;;;;;0.00;0.00;;;18.10;99.90;;;;;;7382170;19;20173;-72
2023/07/23 00:48:49;;;;;;;0.00;0.00;;;18.00;99.90;;;;;;7374305;19;20167;-73
2023/07/23 00:51:19;;;;;;;0.00;0.00;;;18.00;99.90;;;;;;7381452;19;20177;-72
2023/07/23 00:53:50;;;;;;;0.00;0.00;;;17.90;99.90;;;;;;7379552;19;20183;-72
2023/07/23 00:56:20;;;;;;;0.00;0.00;;;17.90;99.90;;;;;;7384495;19;20137;-73
2023/07/23 00:58:51;;;;;;;0.00;0.00;;;17.80;99.90;;;;;;7381637;19;20136;-72
2023/07/23 01:01:20;;;;;;;0.00;0.00;;;17.80;99.90;;;;;;7382875;19;20129;-74
2023/07/23 01:03:49;;;;;;;0.00;0.00;;;17.70;99.90;;;;;;7380022;19;20240;-73
2023/07/23 01:06:20;;;;;;;0.00;0.00;;;17.60;99.90;;;;;;7383756;19;20133;-74
2023/07/23 01:08:51;;;;;;;0.00;0.00;;;17.60;99.90;;;;;;7381383;19;20146;-73
2023/07/23 01:11:20;;;;;;;0.00;0.00;;;17.50;99.90;;;;;;7380372;19;20153;-73
2023/07/23 01:13:54;;;;;;;0.00;0.00;;;17.50;99.90;;;;;;7380910;19;20164;-73
2023/07/23 01:16:23;;;;;;;0.00;0.00;;;17.40;99.90;;;;;;7381699;19;20152;-73
2023/07/23 01:18:52;;;;;;;0.00;0.00;;;17.40;99.90;;;;;;7379862;19;20152;-73
2023/07/23 01:21:21;;;;;;;0.00;0.00;;;17.40;99.90;;;;;;7382408;19;20133;-74
2023/07/23 01:23:52;;;;;;;0.00;0.00;;;17.40;99.90;;;;;;7379753;19;20248;-74
2023/07/23 01:26:22;;;;;;;0.00;0.00;;;17.40;99.90;;;;;;7378674;19;20156;-73
2023/07/23 01:28:51;;;;;;;0.00;0.00;;;17.30;99.90;;;;;;7379296;19;20177;-73
2023/07/23 01:31:20;;;;;;;0.00;0.00;;;17.30;99.90;;;;;;7379002;19;20811;-73
2023/07/23 01:33:49;;;;;;;0.00;0.00;;;17.40;99.90;;;;;;7378998;19;20187;-73
2023/07/23 01:36:19;;;;;;;0.00;0.00;;;17.40;99.90;;;;;;7380365;19;20160;-73
2023/07/23 01:38:48;;;;;;;0.00;0.00;;;17.40;99.90;;;;;;7378381;19;20145;-73
2023/07/23 01:41:20;;;;;;;0.00;0.00;;;17.40;99.90;;;;;;7380777;19;20155;-74
2023/07/23 01:43:49;;;;;;;0.00;0.00;;;17.40;99.90;;;;;;7380965;19;20149;-72
2023/07/23 01:46:18;;;;;;;0.00;0.00;;;17.40;99.90;;;;;;7381485;19;20136;-73
2023/07/23 01:48:47;;;;;;;0.00;0.00;;;17.40;99.90;;;;;;7378345;19;20148;-73
2023/07/23 01:51:16;;;;;;;0.00;0.00;;;17.40;99.90;;;;;;7380845;19;20144;-72
2023/07/23 01:53:45;;;;;;;0.00;0.00;;;17.40;99.90;;;;;;7378388;19;20183;-73
2023/07/23 01:56:13;;;;;;;0.00;0.00;;;17.50;99.90;;;;;;7379719;19;20132;-72
2023/07/23 01:58:45;;;;;;;0.00;0.00;;;17.50;99.90;;;;;;7378734;19;20226;-74
2023/07/23 02:01:14;;;;;;;0.00;0.00;;;17.50;99.90;;;;;;7379161;19;20144;-73
2023/07/23 02:03:43;;;;;;;0.00;0.00;;;17.50;99.90;;;;;;7377978;19;20214;-72
2023/07/23 02:06:11;;;;;;;0.00;0.00;;;17.50;99.90;;;;;;7378519;19;20181;-74
2023/07/23 02:08:40;;;;;;;0.00;0.00;;;17.60;99.90;;;;;;7379842;19;20140;-74
2023/07/23 02:11:09;;;;;;;0.00;0.00;;;17.60;99.90;;;;;;7380346;19;20164;-74
2023/07/23 02:13:38;;;;;;;0.00;0.00;;;17.60;99.90;;;;;;7380831;19;20161;-73
2023/07/23 02:16:18;;;;;;;0.00;0.00;;;17.60;99.90;;;;;;7377545;19;20145;-74
2023/07/23 02:18:47;;;;;;;0.00;0.00;;;17.60;99.90;;;;;;7378067;19;20810;-73
2023/07/23 02:21:16;;;;;;;0.00;0.00;;;17.60;99.90;;;;;;7377814;19;20164;-73
2023/07/23 02:23:46;;;;;;;0.00;0.00;;;17.60;99.90;;;;;;7380259;19;20144;-74
2023/07/23 02:26:14;;;;;;;0.00;0.00;;;17.60;99.90;;;;;;7377834;19;20160;-72
2023/07/23 02:28:43;;;;;;;0.00;0.00;;;17.60;99.90;;;;;;7379616;19;20212;-73
2023/07/23 02:31:15;;;;;;;0.00;0.00;;;17.60;99.90;;;;;;7378727;19;20160;-74
2023/07/23 02:33:44;;;;;;;0.00;0.00;;;17.60;99.90;;;;;;7377554;19;20215;-74
2023/07/23 02:36:13;;;;;;;0.00;0.00;;;17.50;99.90;;;;;;7375784;19;20183;-73
2023/07/23 02:38:43;;;;;;;0.00;0.00;;;17.50;99.90;;;;;;7375549;19;20177;-73
2023/07/23 02:41:11;;;;;;;0.00;0.00;;;17.60;99.90;;;;;;7378650;19;20152;-73
2023/07/23 02:43:41;;;;;;;0.00;0.00;;;;;;;;;;7378226;19;20251;-74
2023/07/23 02:46:10;;;;;;;0.00;0.00;;;17.40;99.90;;;;;;7379435;19;20151;-73
2023/07/23 02:48:41;;;;;;;0.00;0.00;;;17.50;99.90;;;;;;7375985;19;20160;-74
2023/07/23 02:51:10;;;;;;;0.00;0.00;;;17.50;99.90;;;;;;7377257;19;20164;-73
2023/07/23 02:53:39;;;;;;;0.00;0.00;;;17.50;99.90;;;;;;7375885;19;20184;-74
2023/07/23 02:56:08;;;;;;;0.00;0.00;;;17.50;99.90;;;;;;7376239;19;20751;-73
2023/07/23 02:58:37;;;;;;;0.00;0.00;;;17.50;99.90;;;;;;7376256;19;20148;-73
2023/07/23 03:01:06;;;;;;;0.00;0.00;;;17.60;99.90;;;;;;7375940;19;20148;-73
2023/07/23 03:03:35;;;;;;;0.00;0.00;;;17.50;99.90;;;;;;7376420;19;20188;-73
2023/07/23 03:06:08;;;;;;;0.00;0.00;;;17.60;99.90;;;;;;7377161;19;20191;-73
2023/07/23 03:08:37;;;;;;;0.00;0.00;;;17.60;99.90;;;;;;7378808;19;20137;-73
2023/07/23 03:11:07;;;;;;;0.00;0.00;;;17.50;99.90;;;;;;7377338;19;20540;-75
2023/07/23 03:13:36;;;;;;;0.00;0.00;;;17.50;99.90;;;;;;7379723;19;20160;-74
2023/07/23 03:16:05;;;;;;;0.00;0.00;;;17.50;99.90;;;;;;7376811;19;20157;-74
2023/07/23 03:18:33;;;;;;;0.00;0.00;;;17.50;99.90;;;;;;7379469;19;20141;-73
2023/07/23 03:21:06;;;;;;;0.00;0.00;;;17.50;99.90;;;;;;7377991;19;20129;-73
2023/07/23 03:23:35;;;;;;;0.00;0.00;;;17.50;99.90;;;;;;7377733;19;20152;-74
2023/07/23 03:26:04;;;;;;;0.00;0.00;;;17.50;99.90;;;;;;7376192;19;20152;-74
2023/07/23 03:28:33;;;;;;;0.00;0.00;;;17.50;99.90;;;;;;7377738;19;20140;-73
2023/07/23 03:31:01;;;;;;;0.00;0.00;;;17.50;99.90;;;;;;7377537;19;20512;-74
2023/07/23 03:33:30;;;;;;;0.00;0.00;;;17.50;99.90;;;;;;7375677;19;20212;-74
2023/07/23 03:35:58;;;;;;;0.00;0.00;;;17.50;99.90;;;;;;7374526;19;20153;-73
2023/07/23 03:38:30;;;;;;;0.00;0.00;;;17.50;99.90;;;;;;7375887;19;20175;-74
2023/07/23 03:40:58;;;;;;;0.00;0.00;;;17.50;99.90;;;;;;7376483;19;20152;-74
2023/07/23 03:43:27;;;;;;;0.00;0.00;;;17.50;99.90;;;;;;7375734;19;20181;-73
2023/07/23 03:45:56;;;;;;;0.00;0.00;;;17.50;99.90;;;;;;7377196;19;20149;-74
2023/07/23 03:48:24;;;;;;;0.00;0.00;;;17.40;99.90;;;;;;7380371;19;20145;-73
2023/07/23 03:50:53;;;;;;;0.00;0.00;;;17.40;99.90;;;;;;7384260;19;20133;-73
2023/07/23 03:53:22;;;;;;;0.00;0.00;;;17.40;99.90;;;;;;7383227;19;20149;-74
2023/07/23 03:55:53;;;;;;;0.00;0.00;;;17.50;99.90;;;;;;7383698;19;20137;-73
2023/07/23 03:58:21;;;;;;;0.00;0.00;;;17.40;99.90;;;;;;7385053;19;20137;-74
2023/07/23 04:00:50;;;;;;;0.00;0.00;;;17.40;99.90;;;;;;7384556;19;20148;-73
2023/07/23 04:03:19;;;;;;;0.00;0.00;;;17.40;99.90;;;;;;7383006;19;20157;-73
2023/07/23 04:05:48;;;;;;;0.00;0.00;;;17.40;99.90;;;;;;7383505;19;20152;-74
2023/07/23 04:08:17;;;;;;;0.00;0.00;;;17.40;99.90;;;;;;7382795;19;20148;-73
2023/07/23 04:10:45;;;;;;;0.00;0.00;;;17.30;99.90;;;;;;7382404;19;20156;-74
2023/07/23 04:13:17;;;;;;;0.00;0.00;;;17.30;99.90;;;;;;7381859;19;20213;-74
2023/07/23 04:15:45;;;;;;;0.00;0.00;;;17.30;99.90;;;;;;7383754;19;20164;-73
2023/07/23 04:18:16;;;;;;;0.00;0.00;;;17.30;99.90;;;;;;7383390;19;20153;-74
2023/07/23 04:20:45;;;;;;;0.00;0.00;;;;;;;;;;7383696;19;20136;-74
2023/07/23 04:23:14;;;;;;;0.00;0.00;;;;;;;;;;7381892;19;20688;-74
2023/07/23 04:25:42;;;;;;;0.00;0.00;;;;;;;;;;7382875;19;20187;-75
2023/07/23 04:28:11;;;;;;;0.00;0.00;;;;;;;;;;7381636;19;20192;-74
2023/07/23 04:30:43;;;;;;;0.00;0.00;;;;;;;;;;7384317;19;20223;-73
2023/07/23 04:33:12;;;;;;;0.00;0.00;;;;;;;;;;7381159;19;20188;-74
2023/07/23 04:35:41;;;;;;;0.10;0.10;;;;;;;;;;7383127;19;20129;-74
2023/07/23 04:38:12;;;;;;;0.00;0.00;;;;;;;;;;7379651;19;20160;-74
2023/07/23 04:40:40;;;;;;;0.00;0.00;;;;;;;;;;7382245;19;20157;-74
2023/07/23 04:43:09;;;;;;;0.00;0.00;;;;;;;;;;7381513;19;20207;-74
2023/07/23 04:45:38;;;;;;;0.00;0.00;;;;;;;;;;7385035;19;20182;-74
2023/07/23 04:48:12;;;;;;;0.00;0.00;;;;;;;;;;7383702;19;20182;-75
2023/07/23 04:50:41;;;;;;;0.00;0.00;;;;;;;;;;7383160;19;20137;-74
2023/07/23 04:53:10;;;;;;;0.00;0.00;;;;;;;;;;7380858;19;20219;-74
2023/07/23 04:55:39;;;;;;;0.00;0.00;;;;;;;;;;7381680;19;20160;-75
2023/07/23 04:58:08;;;;;;;0.00;0.00;;;;;;;;;;7382887;19;20158;-74
2023/07/23 05:00:37;;;;;;;0.00;0.00;;;;;;;;;;7379222;19;20627;-74
2023/07/23 05:03:06;;;;;;;0.00;0.00;;;;;;;;;;7382866;19;20149;-74
2023/07/23 05:05:37;;;;;;;0.00;0.00;;;;;;;;;;7381426;19;20166;-74
2023/07/23 05:08:07;;;;;;;0.00;0.00;;;;;;;;;;7383453;19;20141;-74
2023/07/23 05:10:36;;;;;;;0.00;0.00;;;;;;;;;;7380909;19;20152;-76
2023/07/23 05:13:05;;;;;;;0.00;0.00;;;;;;;;;;7381701;19;20187;-74
2023/07/23 05:15:34;;;;;;;0.00;0.00;;;;;;;;;;7380038;19;20157;-74
2023/07/23 05:18:03;;;;;;;0.00;0.00;;;;;;;;;;7384543;19;20166;-74
2023/07/23 05:20:31;;;;;;;0.00;0.00;;;;;;;;;;7382011;19;20255;-74
2023/07/23 05:23:03;;;;;;;0.00;0.00;;;;;;;;;;7380802;19;20226;-74
2023/07/23 05:25:32;;;;;;;0.00;0.00;;;;;;;;;;7381387;19;20161;-74
2023/07/23 05:28:01;;;;;;;0.00;0.00;;;;;;;;;;7380508;19;20156;-73
2023/07/23 05:30:30;;;;;;;0.00;0.00;;;;;;;;;;7379591;19;20153;-74
2023/07/23 05:32:58;;;;;;;0.00;0.00;;;;;;;;;;7380565;19;20181;-74
2023/07/23 05:35:27;;;;;;;0.00;0.00;;;;;;;;;;7380574;19;20133;-74
2023/07/23 05:37:56;;;;;;;0.00;0.00;;;;;;;;;;7380514;19;20157;-74
2023/07/23 05:40:30;;;;;;;0.00;0.00;;;;;;;;;;7380913;19;20666;-74
2023/07/23 05:42:59;;;;;;;0.10;0.10;;;;;;;;;;7380035;19;20187;-75
2023/07/23 05:45:28;;;;;;;0.00;0.00;;;;;;;;;;7380962;19;20133;-74
2023/07/23 05:47:57;;;;;;;0.00;0.00;;;;;;;;;;7381704;19;20176;-73
2023/07/23 05:50:25;;;;;;;0.00;0.00;;;;;;;;;;7378360;19;20498;-74
2023/07/23 05:52:54;;;;;;;0.00;0.00;;;;;;;;;;7380222;19;20206;-74
2023/07/23 05:55:23;;;;;;;0.00;0.00;;;;;;;;;;7378878;19;20152;-74
2023/07/23 05:57:55;;;;;;;0.00;0.00;;;;;;;;;;7382408;19;20137;-74
2023/07/23 06:00:24;;;;;;;0.00;0.00;;;;;;;;;;7380100;19;20141;-74
2023/07/23 06:02:53;;;;;;;0.00;0.00;;;;;;;;;;7380108;19;20180;-73
2023/07/23 06:05:22;;;;;;;0.00;0.00;;;;;;;;;;7380876;19;20137;-73
2023/07/23 06:07:50;;;;;;;0.00;0.00;;;;;;;;;;7380117;19;20148;-73
2023/07/23 06:10:19;;;;;;;0.00;0.00;;;;;;;;;;7379734;19;20588;-73
2023/07/23 06:12:48;;;;;;;0.00;0.00;;;;;;;;;;7378496;19;20188;-72
2023/07/23 06:15:20;;;;;;;0.00;0.00;;;;;;;;;;7379975;19;20156;-73
2023/07/23 06:17:49;;;;;;;0.00;0.00;;;;;;;;;;7380094;19;20186;-73
2023/07/23 06:20:18;;;;;;;0.00;0.00;;;;;;;;;;7378416;19;20160;-72
2023/07/23 06:22:47;;;;;;;0.00;0.00;;;;;;;;;;7380106;19;20222;-74
2023/07/23 06:25:15;;;;;;;0.00;0.00;;;;;;;;;;7379274;19;20153;-74
2023/07/23 06:27:44;;;;;;;0.00;0.00;;;;;;;;;;7380049;19;20175;-73
2023/07/23 06:30:14;;;;;;;0.00;0.00;;;;;;;;;;7382131;19;20543;-74
2023/07/23 06:32:45;;;;;;;0.00;0.00;;;;;;;;;;7380967;19;20156;-74
2023/07/23 06:35:14;;;;;;;0.00;0.00;;;;;;;;;;7379402;19;20160;-73
2023/07/23 06:37:43;;;;;;;0.00;0.00;;;;;;;;;;7378221;19;20526;-73
2023/07/23 06:40:12;;;;;;;0.00;0.00;;;;;;;;;;7378554;19;20153;-74
2023/07/23 06:42:41;;;;;;;0.00;0.00;;;;;;;;;;7378822;19;20141;-74
2023/07/23 06:45:12;;;;;;;0.00;0.00;;;;;;;;;;7379899;19;20153;-73
2023/07/23 06:47:41;;;;;;;0.00;0.00;;;;;;;;;;7378951;19;20156;-74
2023/07/23 06:50:13;;;;;;;0.00;0.00;;;;;;;;;;7377994;19;20167;-74
2023/07/23 06:52:42;;;;;;;0.00;0.00;;;;;;;;;;7378037;19;20149;-73
2023/07/23 06:55:11;;;;;;;0.00;0.00;;;;;;;;;;7378556;19;20159;-74
2023/07/23 06:57:41;;;;;;;0.00;0.00;;;;;;;;;;7375977;19;20149;-74
2023/07/23 07:00:12;;;;;;;0.00;0.00;;;;;;;;;;7377280;19;20152;-74
2023/07/23 07:02:41;;;;;;;0.00;0.00;;;;;;;;;;7377433;19;20149;-74
2023/07/23 07:05:12;;;;;;;0.00;0.00;;;;;;;;;;7378392;19;20163;-73
2023/07/23 07:07:41;;;;;;;0.00;0.00;;;;;;;;;;7376494;19;20156;-74
2023/07/23 07:10:11;;;;;;;0.00;0.00;;;;;;;;;;7377829;19;20183;-74
2023/07/23 07:12:40;;;;;;;0.00;0.00;;;;;;;;;;7375767;19;20628;-74
2023/07/23 07:15:10;;;;;;;0.00;0.00;;;;;;;;;;7378496;19;20643;-74
2023/07/23 07:17:39;;;;;;;0.00;0.00;;;;;;;;;;7374907;19;20192;-74
2023/07/23 07:20:09;;;;;;;0.00;0.00;;;;;;;;;;7377382;19;20168;-73
2023/07/23 07:22:40;;;;;;;0.00;0.00;;;;;;;;;;7377062;19;20189;-74
2023/07/23 07:25:10;;;;;;;0.00;0.00;;;;;;;;;;7386604;19;20145;-75
2023/07/23 07:27:39;;;;;;;0.00;0.00;;;;;;;;;;7384896;19;20242;-74
2023/07/23 07:30:09;;;;;;;0.00;0.00;;;;;;;;;;7385608;19;20173;-74
2023/07/23 07:32:39;;;;;;;0.00;0.00;;;;;;;;;;7384096;19;20647;-75
2023/07/23 07:35:08;;;;;;;0.00;0.00;;;;;;;;;;7385648;19;20145;-74
2023/07/23 07:37:40;;;;;;;0.00;0.00;;;;;;;;;;7382240;19;20157;-74
2023/07/23 07:40:12;;;;;;;0.00;0.00;;;;;;;;;;7385609;19;20154;-74
2023/07/23 07:42:41;;;;;;;0.00;0.00;;;;;;;;;;7386015;19;20333;-74
2023/07/23 07:45:11;;;;;;;0.00;0.00;;;;;;;;;;7385383;19;20190;-74
2023/07/23 07:47:40;;;;;;;0.00;0.00;;;;;;;;;;7386711;19;20136;-74
2023/07/23 07:50:09;;;;;;;0.00;0.00;;;;;;;;;;7385892;19;20141;-74
2023/07/23 07:52:41;;;;;;;0.00;0.00;;;;;;;;;;7385731;19;20352;-75
2023/07/23 07:55:10;;;;;;;0.00;0.00;;;;;;;;;;7384044;19;20181;-73
2023/07/23 07:57:39;;;;;;;0.00;0.00;;;20.60;99.90;;;;;;7380857;19;20152;-72
2023/07/23 08:00:09;;;;;;;0.00;0.00;;;20.70;99.90;;;;;;7382497;19;20156;-74
2023/07/23 08:02:44;;;;;;;0.00;0.00;;;20.80;99.90;;;;;;7381553;19;20264;-74
2023/07/23 08:05:14;;;;;;;0.00;0.00;;;20.90;99.90;;;;;;7386165;19;20148;-75
2023/07/23 08:07:47;;;;;;;0.00;0.00;;;21.10;99.90;;;;;;7383286;19;20224;-74
2023/07/23 08:10:15;;;;;;;0.00;0.00;;;21.30;99.90;;;;;;7384199;19;20191;-73
2023/07/23 08:12:44;;;;;;;0.00;0.00;;;21.40;99.90;;;;;;7383141;19;20136;-74
2023/07/23 08:15:14;;;;;;;0.00;0.00;;;21.40;99.90;;;;;;7386422;19;20141;-73
2023/07/23 08:17:43;;;;;;;0.00;0.00;;;21.60;99.90;;;;;;7382516;19;20247;-72
2023/07/23 08:20:13;;;;;;;0.00;0.00;;;21.80;99.90;;;;;;7385114;19;20137;-74
2023/07/23 08:22:42;;;;;;;0.00;0.00;;;22.00;99.90;;;;;;7382392;19;20153;-72
2023/07/23 08:25:15;;;;;;;0.00;0.00;;;22.10;99.90;;;;;;7386239;19;20145;-74
2023/07/23 08:27:47;;;;;;;0.00;0.00;;;22.30;99.90;;;;;;7382392;19;20149;-74
2023/07/23 08:30:16;;;;;;;0.00;0.00;;;22.40;99.90;;;;;;7384677;19;20148;-74
2023/07/23 08:32:46;;;;;;;0.00;0.00;;;22.50;99.90;;;;;;7383590;19;20141;-72
2023/07/23 08:35:15;;;;;;;0.00;0.00;;;22.60;99.90;;;;;;7381210;19;20153;-74
2023/07/23 08:37:44;;;;;;;0.00;0.00;;;22.90;99.90;;;;;;7382239;19;20178;-74
2023/07/23 08:40:17;;;;;;;0.00;0.00;;;23.10;99.90;;;;;;7383381;19;20129;-73
2023/07/23 08:43:18;;;;;;;0.00;0.00;;;23.30;99.90;;;;;;7383386;19;20161;-74
2023/07/23 08:46:24;;;;;;;0.00;0.00;;;23.50;99.90;;;;;;7381417;19;20190;-75
2023/07/23 08:49:11;;;;;;;0.00;0.00;;;23.70;99.90;;;;;;7380383;19;20177;-74
2023/07/23 08:51:44;;;;;;;0.00;0.00;;;24.00;99.90;;;;;;7381637;19;20141;-73
2023/07/23 08:54:14;;;;;;;0.00;0.00;;;24.30;99.90;;;;;;7380708;19;20172;-73
2023/07/23 08:56:46;;;;;;;0.00;0.00;;;24.50;99.90;;;;;;7380448;19;20167;-72
2023/07/23 08:59:15;;;;;;;0.00;0.00;;;24.70;99.90;;;;;;7383324;19;20137;-74
2023/07/23 09:01:44;;;;;;;0.00;0.00;;;24.90;99.90;;;;;;7382380;19;20133;-74
2023/07/23 09:04:15;;;;;;;0.00;0.00;;;25.00;99.90;;;;;;7382849;19;20541;-75
2023/07/23 09:06:45;;;;;;;0.00;0.00;;;25.10;99.90;;;;;;7380561;19;20156;-72
2023/07/23 09:09:15;;;;;;;0.00;0.00;;;25.30;99.90;;;;;;7382554;19;20171;-75
2023/07/23 09:11:46;;;;;;;0.00;0.00;;;;;;;;;;7382257;19;20137;-73
2023/07/23 09:14:16;;;;;;;0.00;0.00;;;25.40;99.90;;;;;;7381351;19;20175;-73
2023/07/23 09:16:48;;;;;;;0.00;0.00;;;25.40;99.90;;;;;;7381663;19;20158;-74
2023/07/23 09:19:24;;;;;;;0.00;0.00;;;25.50;99.90;;;;;;7381080;19;20157;-74
2023/07/23 09:21:53;;;;;;;0.00;0.00;;;25.40;99.90;;;;;;7379331;19;20152;-73
2023/07/23 09:24:21;;;;;;;0.00;0.00;;;25.40;99.90;;;;;;7379331;19;20228;-74
2023/07/23 09:26:53;;;;;;;0.00;0.00;;;25.50;99.90;;;;;;7380612;19;20161;-74
2023/07/23 09:29:21;;;;;;;0.00;0.00;;;25.50;99.90;;;;;;7383370;19;20145;-73
2023/07/23 09:31:51;;;;;;;0.00;0.00;;;25.60;99.90;;;;;;7379470;19;20161;-74
2023/07/23 09:34:22;;;;;;;0.00;0.00;;;25.60;99.90;;;;;;7379484;19;20188;-73
2023/07/23 09:36:54;;;;;;;0.00;0.00;;;25.50;99.90;;;;;;7380744;19;20129;-75
2023/07/23 09:39:27;;;;;;;0.00;0.00;;;25.50;99.90;;;;;;7381624;19;20145;-72
2023/07/23 09:42:04;;;;;;;0.00;0.00;;;25.50;99.90;;;;;;7379867;19;20160;-75
2023/07/23 09:44:33;;;;;;;0.00;0.00;;;25.60;99.90;;;;;;7379099;19;20176;-74
2023/07/23 09:47:03;;;;;;;0.00;0.00;;;25.70;99.90;;;;;;7381421;19;20137;-73
2023/07/23 09:49:32;;;;;;;0.00;0.00;;;25.60;99.90;;;;;;7381881;19;20145;-73
2023/07/23 09:52:05;;;;;;;0.00;0.00;;;25.80;99.90;;;;;;7381261;19;20133;-74
2023/07/23 09:54:35;;;;;;;0.00;0.00;;;25.80;99.90;;;;;;7379920;19;20157;-73
2023/07/23 09:57:08;;;;;;;0.00;0.00;;;25.90;99.90;;;;;;7381272;19;20140;-73
2023/07/23 09:59:39;;;;;;;0.00;0.00;;;26.00;99.90;;;;;;7379543;19;20129;-74
2023/07/23 10:02:10;;;;;;;0.00;0.00;;;26.10;99.90;;;;;;7381671;19;20133;-73
2023/07/23 10:04:41;;;;;;;0.00;0.00;;;26.10;99.90;;;;;;7378373;19;21036;-72
2023/07/23 10:07:12;;;;;;;0.00;0.00;;;26.20;99.90;;;;;;7379612;19;20156;-74
2023/07/23 10:09:41;;;;;;;0.00;0.00;;;26.30;99.90;;;;;;7379576;19;20136;-73
2023/07/23 10:12:12;;;;;;;0.00;0.00;;;26.40;99.90;;;;;;7380786;19;20137;-74
2023/07/23 10:14:41;;;;;;;0.00;0.00;;;26.40;99.90;;;;;;7377779;19;20184;-74
2023/07/23 10:17:10;;;;;;;0.00;0.00;;;26.40;99.90;;;;;;7379739;19;20195;-75
2023/07/23 10:19:41;;;;;;;0.00;0.00;;;26.50;99.90;;;;;;7379518;19;20166;-75
2023/07/23 10:22:10;;;;;;;0.00;0.00;;;26.50;99.90;;;;;;7380872;19;20159;-74
2023/07/23 10:24:42;;;;;;;0.00;0.00;;;26.50;99.90;;;;;;7377645;19;20160;-73
2023/07/23 10:27:17;;;;;;;0.00;0.00;;;26.60;99.90;;;;;;7379705;19;20184;-74
2023/07/23 10:30:16;;;;;;;0.00;0.00;;;26.70;99.90;;;;;;7377138;19;20151;-73
2023/07/23 10:32:44;;;;;;;0.00;0.00;;;26.90;99.90;;;;;;7378085;19;20149;-73
2023/07/23 10:35:13;;;;;;;0.00;0.00;;;26.90;99.90;;;;;;7377934;19;20152;-74
2023/07/23 10:37:42;;;;;;;0.00;0.00;;;26.80;99.90;;;;;;7380071;19;20148;-74
2023/07/23 10:40:11;;;;;;;0.00;0.00;;;;;;;;;;7378155;19;20159;-73
2023/07/23 10:42:45;;;;;;;0.00;0.00;;;;;;;;;;7378345;19;20177;-74
2023/07/23 10:45:21;;;;;;;0.00;0.00;;;;;;;;;;7379766;19;20149;-72
2023/07/23 10:47:52;;;;;;;0.00;0.00;;;;;;;;;;7377743;19;20148;-74
2023/07/23 10:50:22;;;;;;;0.00;0.00;;;;;;;;;;7377205;19;20160;-74
2023/07/23 10:52:52;;;;;;;0.00;0.00;;;;;;;;;;7377053;19;20208;-73
2023/07/23 10:55:36;;;;;;;0.00;0.00;;;;;;;;;;7377860;19;20160;-73
2023/07/23 10:58:13;;;;;;;0.00;0.00;;;;;;;;;;7374849;19;20156;-74
2023/07/23 11:00:45;;;;;;;0.00;0.00;;;;;;;;;;7377874;19;20132;-71
2023/07/23 11:03:16;;;;;;;0.00;0.00;;;;;;;;;;7379719;19;20236;-73
2023/07/23 11:05:45;;;;;;;0.00;0.00;;;;;;;;;;7378670;19;20145;-73
2023/07/23 11:08:14;;;;;;;0.00;0.00;;;;;;;;;;7381225;19;20140;-73
2023/07/23 11:10:48;;;;;;;0.00;0.00;;;;;;;;;;7376495;19;20163;-74
2023/07/23 11:13:19;;;;;;;0.00;0.00;;;;;;;;;;7378900;19;20208;-74
2023/07/23 11:15:48;;;;;;;0.00;0.00;;;;;;;;;;7376873;19;20152;-73
2023/07/23 11:18:17;;;;;;;0.00;0.00;;;;;;;;;;7376619;19;20191;-73
2023/07/23 11:20:49;;;;;;;0.00;0.00;;;;;;;;;;7376393;19;20136;-74
2023/07/23 11:23:20;;;;;;;0.00;0.00;;;;;;;;;;7379599;19;20175;-74
2023/07/23 11:25:50;;;;;;;0.00;0.00;;;;;;;;;;7376548;19;20149;-74
2023/07/23 11:28:22;;;;;;;0.00;0.00;;;;;;;;;;7379396;19;20125;-73
2023/07/23 11:30:52;;;;;;;0.00;0.00;;;;;;;;;;7375582;19;20160;-73
2023/07/23 11:33:22;;;;;;;0.00;0.00;;;;;;;;;;7378121;19;20216;-74
2023/07/23 11:35:51;;;;;;;0.00;0.00;;;;;;;;;;7376570;19;20152;-74
2023/07/23 11:38:20;;;;;;;0.00;0.00;;;;;;;;;;7376974;19;20153;-74
2023/07/23 11:40:57;;;;;;;0.00;0.00;;;;;;;;;;7377990;19;20137;-73
2023/07/23 11:43:28;;;;;;;0.00;0.00;;;;;;;;;;7377825;19;20152;-74
2023/07/23 11:45:57;;;;;;;0.00;0.00;;;;;;;;;;7378365;19;20133;-73
2023/07/23 11:48:26;;;;;;;0.00;0.00;;;;;;;;;;7378729;19;20168;-73
2023/07/23 11:50:55;;;;;;;0.00;0.00;;;;;;;;;;7377875;19;20137;-74
2023/07/23 11:53:34;;;;;;;0.00;0.00;;;;;;;;;;7377633;19;20177;-74
2023/07/23 11:56:06;;;;;;;0.00;0.00;;;;;;;;;;7377912;19;20162;-75
2023/07/23 11:58:39;;;;;;;0.00;0.00;;;;;;;;;;7376474;19;20144;-74
2023/07/23 12:01:08;;;;;;;0.00;0.00;;;26.50;99.90;;;;;;7375833;19;20170;-74
2023/07/23 12:03:40;;;;;;;0.00;0.00;;;;;;;;;;7375708;19;20185;-74
2023/07/23 12:06:09;;;;;;;0.00;0.00;;;;;;;;;;7377308;19;20172;-75
2023/07/23 12:08:40;;;;;;;0.00;0.00;;;;;;;;;;7378691;19;20133;-75
2023/07/23 12:11:10;;;;;;;0.00;0.00;;;26.70;99.90;;;;;;7383799;19;20192;-73
2023/07/23 12:13:47;;;;;;;0.00;0.00;;;26.70;99.90;;;;;;7382609;19;20215;-74
2023/07/23 12:16:20;;;;;;;0.00;0.00;;;26.60;99.90;;;;;;7386323;19;20135;-75
2023/07/23 12:18:49;;;;;;;0.00;0.00;;;26.60;99.90;;;;;;7382723;19;20241;-71
2023/07/23 12:21:23;;;;;;;0.00;0.00;;;26.50;99.90;;;;;;7384514;19;20133;-73
2023/07/23 12:23:51;;;;;;;0.00;0.00;;;26.40;99.90;;;;;;7380648;19;20181;-72
2023/07/23 12:26:20;;;;;;;0.00;0.00;;;26.20;99.90;;;;;;7385004;19;20133;-74
2023/07/23 12:28:51;;;;;;;0.00;0.00;;;26.00;99.90;;;;;;7384666;19;20144;-72
2023/07/23 12:31:19;;;;;;;0.00;0.00;;;25.80;99.90;;;;;;7381973;19;20153;-74
2023/07/23 12:33:49;;;;;;;0.00;0.00;;;25.50;99.90;;;;;;7383308;19;20183;-75
2023/07/23 12:36:17;;;;;;;0.00;0.00;;;25.30;99.90;;;;;;7384747;19;20161;-73
2023/07/23 12:38:46;;;;;;;0.00;0.00;;;25.10;99.90;;;;;;7382467;19;20150;-75
2023/07/23 12:41:14;;;;;;;0.00;0.00;;;25.00;99.90;;;;;;7383225;19;20141;-74
2023/07/23 12:43:43;;;;;;;0.00;0.00;;;24.90;99.90;;;;;;7383526;19;20145;-74
2023/07/23 12:46:14;;;;;;;0.00;0.00;;;24.70;99.90;;;;;;7383194;19;20190;-75
2023/07/23 12:48:43;;;;;;;0.00;0.00;;;24.70;99.90;;;;;;7383269;19;20140;-74
2023/07/23 12:51:12;;;;;;;0.00;0.00;;;24.60;99.90;;;;;;7382977;19;20133;-72
2023/07/23 12:53:40;;;;;;;0.00;0.00;;;24.50;99.90;;;;;;7382660;19;20157;-74
2023/07/23 12:56:09;;;;;;;0.00;0.00;;;24.50;99.90;;;;;;7381376;19;20157;-74
2023/07/23 12:58:38;;;;;;;0.00;0.00;;;24.40;99.90;;;;;;7382576;19;20133;-74
2023/07/23 13:01:06;;;;;;;0.00;0.00;;;24.40;99.90;;;;;;7383112;19;20145;-73
2023/07/23 13:03:37;;;;;;;0.00;0.00;;;24.40;99.90;;;;;;7383196;19;20157;-74
2023/07/23 13:06:06;;;;;;;0.00;0.00;;;24.40;99.90;;;;;;7383364;19;20161;-74
2023/07/23 13:08:35;;;;;;;0.00;0.00;;;24.40;99.90;;;;;;7381597;19;20156;-75
2023/07/23 13:11:03;;;;;;;0.00;0.00;;;24.50;99.90;;;;;;7383229;19;20137;-74
2023/07/23 13:13:32;;;;;;;0.00;0.00;;;24.40;99.90;;;;;;7382991;19;20153;-76
2023/07/23 13:16:01;;;;;;;0.00;0.00;;;24.30;99.90;;;;;;7382103;19;20145;-75
2023/07/23 13:18:29;;;;;;;0.00;0.00;;;24.30;99.90;;;;;;7380987;19;20149;-73
2023/07/23 13:21:01;;;;;;;0.00;0.00;;;24.30;99.90;;;;;;7380741;19;20137;-75
2023/07/23 13:23:30;;;;;;;0.00;0.00;;;24.30;99.90;;;;;;7380812;19;20188;-75
2023/07/23 13:25:58;;;;;;;0.00;0.00;;;24.30;99.90;;;;;;7380768;19;20160;-75
2023/07/23 13:28:27;;;;;;;0.00;0.00;;;24.30;99.90;;;;;;7381411;19;20168;-73
2023/07/23 13:30:57;;;;;;;0.00;0.00;;;24.40;99.90;;;;;;7380083;19;20164;-73
2023/07/23 13:33:26;;;;;;;0.00;0.00;;;24.40;99.90;;;;;;7379911;19;20210;-75
2023/07/23 13:36:00;;;;;;;0.00;0.00;;;24.50;99.90;;;;;;7379770;19;20220;-72
2023/07/23 13:38:28;;;;;;;0.00;0.00;;;24.50;99.90;;;;;;7382458;19;20133;-74
2023/07/23 13:40:57;;;;;;;0.00;0.00;;;24.50;99.90;;;;;;7380767;19;20160;-75
2023/07/23 13:43:26;;;;;;;0.00;0.00;;;24.50;99.90;;;;;;7381628;19;20149;-74